Time;durP1;ratioP1;P1;durP2;ratioP2;P2;SDS_P1;SDS_P2;PMS_P1;PMS_P2;Temp;Humidity;BMP_temperature;BMP_pressure;BME280_temperature;BME280_humidity;BME280_pressure;Samples;Min_cycle;Max_cycle;Signal;HPM_P1;HPM_P2
2023/03/26 00:01:40;;;;;;;5.97;1.67;;;;;;;8.65;100.00;98314.47;5074318;28;20238;-78
2023/03/26 00:04:08;;;;;;;8.77;1.43;;;;;;;8.59;100.00;98313.94;5071476;28;20223;-79
2023/03/26 00:06:40;;;;;;;8.37;1.40;;;;;;;8.58;100.00;98317.50;5066155;28;20200;-79
2023/03/26 00:09:13;;;;;;;7.80;1.80;;;;;;;8.56;100.00;98323.84;5063861;28;20250;-79
2023/03/26 00:11:41;;;;;;;5.07;1.30;;;;;;;8.64;100.00;98315.41;5069313;28;20226;-79
2023/03/26 00:14:12;;;;;;;5.47;1.60;;;;;;;8.67;100.00;98323.94;5066437;28;20647;-78
2023/03/26 00:16:43;;;;;;;9.83;1.40;;;;;;;8.61;100.00;98313.84;5070114;28;20227;-79
2023/03/26 00:19:12;;;;;;;9.33;1.77;;;;;;;8.59;100.00;98315.75;5069347;28;20200;-79
2023/03/26 00:21:40;;;;;;;6.57;1.63;;;;;;;8.58;100.00;98324.59;5068364;28;20716;-79
2023/03/26 00:24:13;;;;;;;9.03;1.77;;;;;;;8.68;100.00;98323.00;5068749;28;20224;-79
2023/03/26 00:26:47;;;;;;;7.37;1.93;;;;;;;8.65;100.00;98325.03;5072536;28;20200;-78
2023/03/26 00:29:17;;;;;;;6.90;1.50;;;;;;;8.69;100.00;98318.59;5070869;28;20639;-79
2023/03/26 00:31:46;;;;;;;12.17;2.00;;;;;;;8.69;100.00;98319.44;5064710;28;20253;-78
2023/03/26 00:34:17;;;;;;;6.17;1.70;;;;;;;8.66;100.00;98326.72;5066983;28;20224;-78
2023/03/26 00:36:46;;;;;;;7.13;2.03;;;;;;;8.68;100.00;98322.16;5073636;28;20202;-79
2023/03/26 00:39:16;;;;;;;11.47;1.83;;;;;;;8.70;100.00;98331.69;5073522;28;20204;-78
2023/03/26 00:41:45;;;;;;;8.90;1.80;;;;;;;8.68;100.00;98317.72;5063666;28;20643;-78
2023/03/26 00:44:13;;;;;;;7.27;2.00;;;;;;;8.66;100.00;98334.63;5070124;28;20216;-79
2023/03/26 00:46:42;;;;;;;5.17;1.40;;;;;;;8.68;100.00;98330.06;5063307;28;20200;-78
2023/03/26 00:49:13;;;;;;;6.70;2.37;;;;;;;8.65;100.00;98331.13;5070506;28;20199;-79
2023/03/26 00:51:42;;;;;;;9.70;1.80;;;;;;;8.58;100.00;98336.00;5065819;28;20211;-79
2023/03/26 00:54:10;;;;;;;6.93;1.87;;;;;;;8.56;100.00;98329.97;5003690;28;20202;-79
2023/03/26 00:56:40;;;;;;;9.03;1.87;;;;;;;8.61;100.00;98329.69;5007282;28;20206;-79
2023/03/26 00:59:09;;;;;;;8.20;2.30;;;;;;;8.76;100.00;98333.03;5010197;28;20199;-79
2023/03/26 01:01:39;;;;;;;8.23;1.93;;;;;;;8.68;100.00;98330.06;5008529;28;20202;-80
2023/03/26 01:04:29;;;;;;;8.80;2.10;;;;;;;8.69;100.00;98329.16;5007361;28;20222;-78
2023/03/26 01:07:02;;;;;;;8.07;1.77;;;;;;;8.69;100.00;98323.88;5011203;28;20299;-79
2023/03/26 01:09:35;;;;;;;9.20;1.90;;;;;;;8.70;100.00;98322.91;5002256;28;20190;-79
2023/03/26 01:12:09;;;;;;;9.67;2.03;;;;;;;8.75;100.00;98307.59;5008398;28;20206;-79
2023/03/26 01:14:38;;;;;;;10.20;2.20;;;;;;;8.70;100.00;98312.38;5010983;28;20198;-78
2023/03/26 01:17:08;;;;;;;13.27;1.90;;;;;;;8.52;100.00;98309.19;5008679;28;20190;-79
2023/03/26 01:19:43;;;;;;;12.23;2.67;;;;;;;8.54;100.00;98299.38;5057724;28;20204;-78
2023/03/26 01:22:15;;;;;;;8.57;2.03;;;;;;;8.66;100.00;98297.66;5067816;28;20196;-78
2023/03/26 01:24:51;;;;;;;7.93;2.20;;;;;;;8.57;100.00;98299.16;5037146;28;20257;-78
2023/03/26 01:27:30;;;;;;;12.53;2.47;;;;;;;8.63;100.00;98298.72;5071593;28;20283;-78
2023/03/26 01:30:09;;;;;;;7.70;2.00;;;;;;;8.66;100.00;98300.31;5072692;28;20200;-78
2023/03/26 01:32:50;;;;;;;13.20;2.37;;;;;;;8.60;100.00;98291.88;4991215;28;20194;-78
2023/03/26 01:35:31;;;;;;;11.80;2.20;;;;;;;8.66;100.00;98287.97;4989110;28;20282;-78
2023/03/26 01:38:10;;;;;;;8.87;1.97;;;;;;;8.61;100.00;98287.44;4985062;28;20279;-78
2023/03/26 01:40:48;;;;;;;12.83;2.60;;;;;;;8.55;100.00;98286.06;4982224;28;20230;-78
2023/03/26 01:43:32;;;;;;;8.00;2.00;;;;;;;8.62;100.00;98273.28;4986195;28;20234;-78
2023/03/26 01:46:03;;;;;;;17.77;2.53;;;;;;;8.53;100.00;98277.41;4985907;28;20226;-78
2023/03/26 01:48:35;;;;;;;10.03;2.13;;;;;;;8.59;100.00;98270.88;4991071;28;20219;-78
2023/03/26 01:51:05;;;;;;;11.63;2.03;;;;;;;8.51;100.00;98273.22;4985815;28;20716;-78
2023/03/26 01:53:39;;;;;;;10.17;2.90;;;;;;;8.54;100.00;98267.72;4984918;28;20226;-78
2023/03/26 01:56:16;;;;;;;9.43;2.70;;;;;;;8.51;100.00;98265.28;4986137;28;20207;-78
2023/03/26 01:59:00;;;;;;;13.97;2.60;;;;;;;8.56;100.00;98258.72;4991823;28;20638;-78
2023/03/26 02:01:35;;;;;;;13.47;2.33;;;;;;;8.48;100.00;98268.97;4984897;28;20198;-78
2023/03/26 02:04:12;;;;;;;12.63;2.50;;;;;;;8.59;100.00;98261.16;5039977;28;20207;-78
2023/03/26 02:06:46;;;;;;;10.43;2.23;;;;;;;8.52;100.00;98266.97;5067419;28;20220;-79
2023/03/26 02:09:21;;;;;;;8.67;2.17;;;;;;;8.48;100.00;98260.22;5072092;28;20257;-79
2023/03/26 02:11:51;;;;;;;14.90;2.63;;;;;;;8.49;100.00;98253.97;5068136;28;20203;-79
2023/03/26 02:14:20;;;;;;;13.53;2.50;;;;;;;8.62;100.00;98256.63;5072366;28;20184;-78
2023/03/26 02:16:50;;;;;;;14.03;3.47;;;;;;;8.42;100.00;98258.00;5065093;28;20197;-78
2023/03/26 02:19:20;;;;;;;15.97;2.47;;;;;;;8.35;100.00;98252.31;5069180;28;20227;-78
2023/03/26 02:21:50;;;;;;;12.13;2.43;;;;;;;8.40;100.00;98262.56;5071951;28;20197;-78
2023/03/26 02:24:18;;;;;;;8.40;2.03;;;;;;;8.41;100.00;98243.13;5066344;28;20216;-78
2023/03/26 02:26:46;;;;;;;10.90;2.60;;;;;;;8.30;100.00;98246.50;5064140;28;20222;-79
2023/03/26 02:29:19;;;;;;;9.47;2.37;;;;;;;8.29;100.00;98236.88;5066530;28;20258;-78
2023/03/26 02:31:48;;;;;;;11.97;2.90;;;;;;;8.12;100.00;98234.56;5070080;28;20224;-79
2023/03/26 02:34:17;;;;;;;11.53;2.70;;;;;;;8.11;100.00;98236.38;5067617;28;20232;-78
2023/03/26 02:36:46;;;;;;;12.70;2.57;;;;;;;8.15;100.00;98237.00;5009956;28;20194;-79
2023/03/26 02:39:14;;;;;;;12.83;2.63;;;;;;;8.09;100.00;98230.34;5005010;28;20206;-79
2023/03/26 02:41:42;;;;;;;11.43;2.37;;;;;;;7.95;100.00;98222.53;5009330;28;20222;-79
2023/03/26 02:44:11;;;;;;;11.27;2.57;;;;;;;7.99;100.00;98219.56;5004481;28;20256;-79
2023/03/26 02:46:41;;;;;;;14.63;2.20;;;;;;;7.97;100.00;98218.84;4999532;28;20261;-78
2023/03/26 02:49:10;;;;;;;12.27;2.40;;;;;;;7.93;100.00;98209.47;5008208;28;20240;-80
2023/03/26 02:51:38;;;;;;;12.37;2.47;;;;;;;7.89;100.00;98217.69;5006501;28;20194;-79
2023/03/26 02:54:06;;;;;;;10.50;2.83;;;;;;;7.84;100.00;98222.44;5018071;28;20200;-79
2023/03/26 02:56:37;;;;;;;12.33;2.67;;;;;;;7.81;100.00;98210.28;5060762;28;20200;-78
2023/03/26 02:59:05;;;;;;;13.77;2.37;;;;;;;7.58;100.00;98221.53;5067597;28;20203;-78
2023/03/26 03:01:34;;;;;;;8.47;2.10;;;;;;;7.52;100.00;98214.03;5066578;28;20261;-79
2023/03/26 03:04:04;;;;;;;9.20;2.40;;;;;;;7.54;100.00;98209.53;5065226;28;20227;-78
2023/03/26 03:06:33;;;;;;;10.83;2.60;;;;;;;7.53;100.00;98203.41;5032502;28;20212;-79
2023/03/26 03:09:03;;;;;;;10.73;2.57;;;;;;;7.49;100.00;98203.72;5064915;28;20227;-79
2023/03/26 03:11:32;;;;;;;19.40;4.03;;;;;;;7.60;100.00;98198.56;5070232;28;20238;-78
2023/03/26 03:14:00;;;;;;;12.23;2.77;;;;;;;7.78;100.00;98196.47;5068898;28;20220;-79
2023/03/26 03:16:29;;;;;;;14.30;3.20;;;;;;;7.48;100.00;98192.34;5072206;28;20192;-79
2023/03/26 03:19:00;;;;;;;10.60;2.93;;;;;;;7.64;100.00;98194.78;5065652;28;20200;-79
2023/03/26 03:21:30;;;;;;;11.00;2.60;;;;;;;7.55;100.00;98192.78;5065427;28;20709;-78
2023/03/26 03:23:58;;;;;;;12.73;3.63;;;;;;;7.80;100.00;98184.03;5066137;28;20189;-79
2023/03/26 03:26:28;;;;;;;16.60;3.87;;;;;;;7.90;100.00;98193.00;5062287;28;20243;-79
2023/03/26 03:28:58;;;;;;;12.77;5.37;;;;;;;7.94;100.00;98192.69;5067629;28;20195;-79
2023/03/26 03:31:27;;;;;;;12.00;3.03;;;;;;;7.86;100.00;98186.25;5071027;28;20192;-79
2023/03/26 03:33:55;;;;;;;11.07;2.50;;;;;;;7.81;100.00;98185.72;5069280;28;20224;-79
2023/03/26 03:36:26;;;;;;;12.43;2.33;;;;;;;7.95;100.00;98175.91;5069745;28;20193;-79
2023/03/26 03:39:01;;;;;;;15.37;2.73;;;;;;;7.82;100.00;98172.47;5071773;28;20196;-78
2023/03/26 03:41:30;;;;;;;8.90;2.33;;;;;;;7.76;100.00;98172.88;5073634;28;20219;-79
2023/03/26 03:44:00;;;;;;;9.90;2.10;;;;;;;7.83;100.00;98171.50;5070870;28;20192;-79
2023/03/26 03:46:28;;;;;;;8.37;2.27;;;;;;;7.78;100.00;98165.69;5066098;28;20224;-79
2023/03/26 03:48:57;;;;;;;14.30;2.80;;;;;;;7.77;100.00;98166.66;5064047;28;20201;-79
2023/03/26 03:51:27;;;;;;;9.83;2.33;;;;;;;7.92;100.00;98164.75;5068120;28;20196;-78
2023/03/26 03:53:59;;;;;;;14.40;2.63;;;;;;;7.92;100.00;98162.97;5069610;28;20192;-78
2023/03/26 03:56:29;;;;;;;11.90;2.43;;;;;;;7.86;100.00;98154.63;5067928;28;20204;-79
2023/03/26 03:58:58;;;;;;;11.17;2.50;;;;;;;7.91;100.00;98148.09;5063762;28;20327;-78
2023/03/26 04:01:29;;;;;;;11.47;2.37;;;;;;;7.96;100.00;98148.59;5069672;28;20316;-78
2023/03/26 04:03:57;;;;;;;11.40;2.77;;;;;;;7.94;100.00;98150.50;5061933;28;20265;-79
2023/03/26 04:06:29;;;;;;;7.63;2.00;;;;;;;7.90;100.00;98148.19;5065617;28;20274;-79
2023/03/26 04:08:58;;;;;;;7.20;2.17;;;;;;;7.92;100.00;98148.94;5068912;28;20208;-78
2023/03/26 04:11:27;;;;;;;10.40;2.20;;;;;;;7.96;100.00;98145.13;5066013;28;20189;-79
2023/03/26 04:13:55;;;;;;;8.43;2.33;;;;;;;7.97;100.00;98139.75;5066160;28;20669;-79
2023/03/26 04:16:23;;;;;;;11.57;2.23;;;;;;;7.92;100.00;98133.97;5064269;28;20200;-79
2023/03/26 04:18:52;;;;;;;10.90;1.93;;;;;;;7.93;100.00;98132.16;5071213;28;20200;-79
2023/03/26 04:21:23;;;;;;;12.83;2.30;;;;;;;7.91;100.00;98137.56;5064726;28;20274;-78
2023/03/26 04:23:53;;;;;;;11.30;2.20;;;;;;;7.91;100.00;98128.78;5071598;28;20185;-79
2023/03/26 04:26:23;;;;;;;10.57;2.07;;;;;;;7.81;100.00;98128.56;5067102;28;20224;-78
2023/03/26 04:28:53;;;;;;;8.00;2.23;;;;;;;7.73;100.00;98128.28;5065814;28;20193;-78
2023/03/26 04:31:27;;;;;;;11.57;2.23;;;;;;;7.71;100.00;98123.09;5069245;28;20283;-79
2023/03/26 04:34:05;;;;;;;9.43;2.20;;;;;;;7.66;100.00;98116.47;5073296;28;20220;-79
2023/03/26 04:36:35;;;;;;;8.60;2.37;;;;;;;7.69;100.00;98105.72;5073497;28;20188;-79
2023/03/26 04:39:05;;;;;;;8.83;2.43;;;;;;;7.40;100.00;98105.91;5066988;28;20258;-78
2023/03/26 04:41:35;;;;;;;4.97;2.00;;;;;;;7.14;100.00;98115.59;5066269;28;20295;-79
2023/03/26 04:44:03;;;;;;;6.53;1.70;;;;;;;7.05;100.00;98100.41;5070156;28;20189;-79
2023/03/26 04:46:32;;;;;;;10.20;1.80;;;;;;;7.06;100.00;98099.47;5070367;28;20774;-79
2023/03/26 04:49:00;;;;;;;8.77;2.20;;;;;;;6.98;100.00;98104.38;5069048;28;20222;-78
2023/03/26 04:51:37;;;;;;;5.93;1.87;;;;;;;6.86;100.00;98103.41;5071380;28;20311;-80
2023/03/26 04:54:06;;;;;;;6.23;1.80;;;;;;;6.94;100.00;98105.50;5072858;28;20196;-78
2023/03/26 04:56:45;;;;;;;14.87;2.40;;;;;;;6.86;100.00;98100.78;5064856;28;20271;-78
2023/03/26 04:59:17;;;;;;;10.37;2.27;;;;;;;6.91;100.00;98099.63;5070990;28;20290;-78
2023/03/26 05:01:47;;;;;;;8.20;2.30;;;;;;;6.85;100.00;98087.69;5073721;28;20197;-79
2023/03/26 05:04:15;;;;;;;7.70;2.20;;;;;;;6.86;100.00;98086.78;5064534;28;20219;-79
2023/03/26 05:06:44;;;;;;;6.90;2.57;;;;;;;6.81;100.00;98094.13;5067451;28;20212;-79
2023/03/26 05:09:13;;;;;;;9.37;1.80;;;;;;;6.83;100.00;98087.81;5068850;28;20214;-78
2023/03/26 05:11:42;;;;;;;10.53;2.23;;;;;;;6.97;100.00;98086.06;5072109;28;20196;-80
2023/03/26 05:14:11;;;;;;;12.83;3.17;;;;;;;6.86;100.00;98081.50;5068199;28;20192;-79
2023/03/26 05:16:40;;;;;;;7.27;2.50;;;;;;;6.82;100.00;98080.00;5062785;28;20250;-79
2023/03/26 05:19:08;;;;;;;7.13;2.30;;;;;;;6.84;100.00;98078.13;5072544;28;20250;-79
2023/03/26 05:21:36;;;;;;;7.77;2.43;;;;;;;6.64;100.00;98068.91;5067941;28;20188;-79
2023/03/26 05:24:06;;;;;;;9.50;2.57;;;;;;;6.57;100.00;98070.28;5072504;28;20192;-78
2023/03/26 05:26:35;;;;;;;10.47;2.40;;;;;;;6.78;100.00;98073.28;5063835;28;20234;-79
2023/03/26 05:29:05;;;;;;;9.70;2.60;;;;;;;6.80;100.00;98068.75;5063552;28;20211;-79
2023/03/26 05:31:33;;;;;;;9.20;2.63;;;;;;;6.75;100.00;98057.69;5072606;28;20192;-79
2023/03/26 05:34:02;;;;;;;7.33;2.60;;;;;;;6.68;100.00;98057.25;5065970;28;20212;-79
2023/03/26 05:36:30;;;;;;;7.87;2.50;;;;;;;6.63;100.00;98042.72;5067061;28;20282;-79
2023/03/26 05:38:59;;;;;;;7.30;2.60;;;;;;;6.77;100.00;98047.91;5069454;28;20254;-79
2023/03/26 05:41:27;;;;;;;8.60;2.60;;;;;;;6.77;100.00;98051.38;5068533;28;20235;-79
2023/03/26 05:43:55;;;;;;;7.70;2.67;;;;;;;6.82;100.00;98035.28;5067108;28;20275;-79
2023/03/26 05:46:25;;;;;;;10.60;2.93;;;;;;;6.85;100.00;98038.56;5065542;28;20211;-79
2023/03/26 05:48:54;;;;;;;5.87;2.87;;;;;;;6.97;100.00;98039.53;5064771;28;20200;-79
2023/03/26 05:51:23;;;;;;;9.80;2.80;;;;;;;6.86;100.00;98032.34;5063964;28;20200;-79
2023/03/26 05:53:54;;;;;;;6.67;3.00;;;;;;;6.91;100.00;98020.66;5070629;28;20278;-79
2023/03/26 05:56:22;;;;;;;10.30;3.40;;;;;;;6.97;100.00;98023.72;5063551;28;20189;-79
2023/03/26 05:58:50;;;;;;;10.10;3.10;;;;;;;6.96;100.00;98021.22;5060063;28;20234;-79
2023/03/26 06:01:19;;;;;;;10.13;3.10;;;;;;;7.03;100.00;98014.56;5064104;28;20257;-78
2023/03/26 06:03:50;;;;;;;10.57;3.30;;;;;;;6.95;100.00;98012.47;5067363;28;20204;-79
2023/03/26 06:06:20;;;;;;;9.63;3.00;;;;;;;6.97;100.00;98012.38;5070410;28;20374;-79
2023/03/26 06:08:51;;;;;;;7.63;2.97;;;;;;;7.02;100.00;98008.44;5067142;28;20216;-79
2023/03/26 06:11:32;;;;;;;10.23;2.90;;;;;;;7.09;100.00;98011.53;5067148;28;20192;-79
2023/03/26 06:14:01;;;;;;;11.17;3.10;;;;;;;7.12;100.00;98006.88;5063126;28;20226;-79
2023/03/26 06:16:29;;;;;;;14.67;5.40;;;;;;;7.16;100.00;98003.09;5061432;28;20736;-79
2023/03/26 06:18:59;;;;;;;30.80;13.60;;;;;;;7.25;100.00;97999.00;5070395;28;20238;-79
2023/03/26 06:21:33;;;;;;;19.57;8.90;;;;;;;7.26;100.00;97994.56;5069514;28;20196;-78
2023/03/26 06:24:01;;;;;;;10.40;4.30;;;;;;;7.37;100.00;97990.22;5072070;28;20215;-79
2023/03/26 06:26:30;;;;;;;11.80;3.40;;;;;;;7.29;100.00;97989.09;5070724;28;20197;-79
2023/03/26 06:28:58;;;;;;;8.83;2.87;;;;;;;7.40;100.00;97990.00;5062398;28;20274;-78
2023/03/26 06:31:26;;;;;;;10.30;3.13;;;;;;;7.41;100.00;97986.44;5068693;28;20266;-79
2023/03/26 06:33:55;;;;;;;10.27;3.43;;;;;;;7.34;100.00;97984.34;5066973;28;20236;-79
2023/03/26 06:36:25;;;;;;;11.63;4.27;;;;;;;7.52;100.00;97980.41;5071855;28;20193;-78
2023/03/26 06:38:53;;;;;;;10.93;3.70;;;;;;;7.35;100.00;97970.22;5068174;28;20717;-79
2023/03/26 06:41:22;;;;;;;9.37;3.30;;;;;;;7.38;100.00;97975.28;5064458;28;20201;-79
2023/03/26 06:43:50;;;;;;;8.53;3.60;;;;;;;7.41;100.00;97981.16;5066558;28;20228;-79
2023/03/26 06:46:20;;;;;;;8.73;3.27;;;;;;;7.44;100.00;97972.22;5072755;28;20201;-79
2023/03/26 06:48:48;;;;;;;12.60;3.43;;;;;;;7.33;100.00;97974.75;5070617;28;20212;-79
2023/03/26 06:51:16;;;;;;;11.33;3.50;;;;;;;7.51;100.00;97975.25;5066865;28;20197;-79
2023/03/26 06:53:49;;;;;;;11.30;3.90;;;;;;;7.68;100.00;97988.06;5070294;28;20211;-78
2023/03/26 06:56:17;;;;;;;18.10;6.33;;;;;;;7.62;100.00;97972.69;5069767;28;20192;-79
2023/03/26 06:58:45;;;;;;;17.70;9.07;;;;;;;7.74;100.00;97982.38;5066668;28;20205;-79
2023/03/26 07:01:14;;;;;;;17.13;7.10;;;;;;;7.68;100.00;97974.91;5071372;28;20445;-79
2023/03/26 07:03:42;;;;;;;9.40;4.87;;;;;;;7.74;100.00;97969.19;5064651;28;20218;-78
2023/03/26 07:06:11;;;;;;;12.07;4.23;;;;;;;7.77;100.00;97974.25;5065738;28;20201;-79
2023/03/26 07:08:39;;;;;;;10.50;3.83;;;;;;;7.85;100.00;97958.72;5071434;28;20222;-78
2023/03/26 07:11:09;;;;;;;7.30;3.63;;;;;;;7.91;100.00;97960.94;5071135;28;20250;-79
2023/03/26 07:13:38;;;;;;;9.50;3.67;;;;;;;7.83;100.00;97950.09;5067158;28;20277;-78
2023/03/26 07:16:07;;;;;;;9.40;3.93;;;;;;;7.75;100.00;97945.38;5072629;28;20188;-79
2023/03/26 07:18:35;;;;;;;12.57;3.70;;;;;;;7.72;100.00;97950.88;5071841;28;20215;-79
2023/03/26 07:21:04;;;;;;;9.23;3.77;;;;;;;7.76;100.00;97933.03;5066919;28;20200;-79
2023/03/26 07:23:34;;;;;;;8.33;3.80;;;;;;;7.90;100.00;97927.59;5069620;28;20648;-79
2023/03/26 07:26:23;;;;;;;10.00;4.47;;;;;;;8.08;100.00;97917.50;5068247;28;20193;-79
2023/03/26 07:28:59;;;;;;;12.93;4.20;;;;;;;8.11;100.00;97916.44;5069325;28;20220;-79
2023/03/26 07:31:40;;;;;;;13.67;3.57;;;;;;;8.19;100.00;97912.25;5072129;28;20248;-79
2023/03/26 07:34:26;;;;;;;13.27;4.13;;;;;;;8.33;100.00;97922.63;5072603;28;20239;-79
2023/03/26 07:37:02;;;;;;;10.93;3.60;;;;;;;8.04;100.00;97910.78;5071845;28;20196;-79
2023/03/26 07:39:42;;;;;;;13.40;3.53;;;;;;;8.22;100.00;97911.22;5074734;28;20196;-78
2023/03/26 07:42:26;;;;;;;14.70;4.87;;;;;;;7.96;100.00;97916.59;5073568;28;20219;-79
2023/03/26 07:45:02;;;;;;;14.00;4.13;;;;;;;8.21;100.00;97912.16;5065390;28;20188;-79
2023/03/26 07:47:35;;;;;;;12.20;4.50;;;;;;;8.32;100.00;97907.75;5072072;28;20196;-79
2023/03/26 07:50:05;;;;;;;11.70;4.53;;;;;;;8.17;100.00;97903.63;5070996;28;20279;-79
2023/03/26 07:52:34;;;;;;;14.50;5.10;;;;;;;8.16;100.00;97901.09;5071631;28;20642;-78
2023/03/26 07:55:03;;;;;;;15.80;5.77;;;;;;;8.09;100.00;97900.72;5074370;28;20188;-79
2023/03/26 07:57:45;;;;;;;12.13;4.43;;;;;;;8.13;100.00;97893.44;5067600;28;20204;-78
2023/03/26 08:00:20;;;;;;;15.57;5.00;;;;;;;8.34;100.00;97891.81;5074265;28;20192;-79
2023/03/26 08:03:26;;;;;;;8.70;3.83;;;;;;;8.08;100.00;97885.84;5069273;28;20196;-79
2023/03/26 08:06:07;;;;;;;12.57;4.03;;;;;;;8.16;100.00;97894.03;5028154;28;20204;-79
2023/03/26 08:08:42;;;;;;;12.50;4.03;;;;;;;8.40;100.00;97901.94;5064694;28;20282;-79
2023/03/26 08:11:22;;;;;;;12.70;4.53;;;;;;;8.29;100.00;97896.59;5074051;28;20215;-80
2023/03/26 08:14:04;;;;;;;14.10;4.27;;;;;;;8.07;100.00;97889.44;5071142;28;20203;-79
2023/03/26 08:16:40;;;;;;;14.83;4.33;;;;;;;8.03;100.00;97895.91;5066476;28;20200;-79
2023/03/26 08:19:21;;;;;;;14.00;4.30;;;;;;;8.14;100.00;97895.94;5064796;28;20342;-79
2023/03/26 08:21:53;;;;;;;13.27;5.33;;;;;;;8.16;100.00;97891.41;5067087;28;20254;-80
2023/03/26 08:24:32;;;;;;;14.27;4.50;;;;;;;8.15;100.00;97891.50;5072169;28;20189;-79
2023/03/26 08:27:12;;;;;;;16.53;6.20;;;;;;;8.11;100.00;97884.81;5070041;28;20257;-79
2023/03/26 08:29:50;;;;;;;14.93;5.93;;;;;;;8.02;100.00;97884.53;5072062;28;20212;-79
2023/03/26 08:32:19;;;;;;;16.87;6.10;;;;;;;8.11;100.00;97882.16;5066022;28;20269;-80
2023/03/26 08:34:48;;;;;;;17.37;6.17;;;;;;;8.10;100.00;97883.94;4948962;29;20258;-79
2023/03/26 08:37:17;;;;;;;16.00;5.67;;;;;;;8.11;100.00;97879.53;4948007;28;20208;-79
2023/03/26 08:39:45;;;;;;;16.53;6.00;;;;;;;8.06;100.00;97874.56;4953155;29;20248;-79
2023/03/26 08:42:49;;;;;;;13.60;6.13;;;;;;;8.18;100.00;97884.19;4952048;29;20201;-79
2023/03/26 08:45:54;;;;;;;18.90;6.17;;;;;;;8.37;100.00;97875.78;4922299;29;20204;-79
2023/03/26 08:49:00;;;;;;;12.93;4.93;;;;;;;8.39;100.00;97871.22;4945621;29;20807;-79
2023/03/26 08:51:56;;;;;;;15.60;5.30;;;;;;;8.45;100.00;97869.94;4950928;29;20246;-78
2023/03/26 08:54:48;;;;;;;15.73;4.90;;;;;;;8.48;100.00;97869.69;5074276;28;20201;-79
2023/03/26 08:57:41;;;;;;;16.50;4.93;;;;;;;8.42;100.00;97864.91;5043820;28;20257;-79
2023/03/26 09:00:36;;;;;;;10.83;3.70;;;;;;;8.49;100.00;97863.44;5067471;28;20196;-79
2023/03/26 09:03:40;;;;;;;16.23;4.63;;;;;;;8.23;100.00;97865.41;5072636;28;20710;-79
2023/03/26 09:06:30;;;;;;;11.17;3.57;;;;;;;8.24;100.00;97860.00;5073049;28;20246;-79
2023/03/26 09:09:29;;;;;;;15.97;3.83;;;;;;;8.19;100.00;97859.50;5073155;28;20216;-79
2023/03/26 09:12:58;;;;;;;12.73;3.50;;;;;;;8.18;100.00;97863.09;5066802;28;20279;-78
2023/03/26 09:16:16;;;;;;;13.53;3.63;;;;;;;8.17;100.00;97861.44;5072777;28;20259;-79
2023/03/26 09:19:17;;;;;;;12.57;3.77;;;;;;;8.26;100.00;97854.63;5067888;28;20231;-79
2023/03/26 09:22:26;;;;;;;10.20;4.07;;;;;;;8.35;100.00;97853.97;5028595;28;20239;-79
2023/03/26 09:25:21;;;;;;;12.93;3.80;;;;;;;8.27;100.00;97849.22;4993264;28;20691;-79
2023/03/26 09:28:10;;;;;;;10.20;4.13;;;;;;;8.15;100.00;97855.44;5029300;28;20198;-79
2023/03/26 09:31:12;;;;;;;9.37;3.90;;;;;;;8.07;100.00;97856.97;5030597;28;20716;-80
2023/03/26 09:33:58;;;;;;;8.43;3.63;;;;;;;8.09;100.00;97847.13;5026070;28;20229;-80
2023/03/26 09:36:53;;;;;;;10.50;3.53;;;;;;;8.09;100.00;97849.75;5028498;28;20261;-80
2023/03/26 09:39:36;;;;;;;11.03;3.63;;;;;;;8.12;100.00;97841.66;4991770;28;20201;-81
2023/03/26 09:42:17;;;;;;;9.87;3.60;;;;;;;8.16;100.00;97843.09;5043276;28;20704;-81
2023/03/26 09:45:33;;;;;;;6.07;3.27;;;;;;;8.09;100.00;97845.34;5050431;28;20368;-80
2023/03/26 09:48:40;;;;;;;9.07;3.70;;;;;;;8.13;100.00;97843.31;5052544;28;20658;-80
2023/03/26 09:51:22;;;;;;;7.80;2.90;;;;;;;8.14;100.00;97832.66;5037248;28;20710;-80
2023/03/26 09:54:43;;;;;;;7.60;2.50;;;;;;;8.11;100.00;97834.69;5052472;28;20204;-80
2023/03/26 09:57:23;;;;;;;8.80;3.03;;;;;;;8.12;100.00;97823.19;4986244;28;20214;-81
2023/03/26 10:00:21;;;;;;;9.43;3.40;;;;;;;8.06;100.00;97828.91;5046277;28;20203;-80
2023/03/26 10:03:17;;;;;;;9.67;2.90;;;;;;;8.14;100.00;97822.09;5052218;28;20660;-79
2023/03/26 10:05:57;;;;;;;6.83;2.70;;;;;;;8.21;100.00;97815.41;5049856;28;20225;-81
2023/03/26 10:08:46;;;;;;;6.43;2.60;;;;;;;8.25;100.00;97808.09;5048398;28;20201;-80
2023/03/26 10:11:32;;;;;;;5.63;2.53;;;;;;;8.31;100.00;97803.22;5049488;28;20205;-81
2023/03/26 10:14:08;;;;;;;6.87;3.20;;;;;;;8.42;100.00;97794.50;5047573;28;20258;-80
2023/03/26 10:16:48;;;;;;;9.07;3.57;;;;;;;8.42;100.00;97788.38;5054907;28;20204;-80
2023/03/26 10:19:30;;;;;;;6.37;2.70;;;;;;;8.42;100.00;97791.88;5051948;28;20200;-81
2023/03/26 10:22:09;;;;;;;6.67;3.10;;;;;;;8.62;100.00;97797.38;5053577;28;20185;-81
2023/03/26 10:25:01;;;;;;;8.10;3.23;;;;;;;8.57;100.00;97795.09;5048005;28;20686;-81
2023/03/26 10:27:44;;;;;;;9.03;2.60;;;;;;;8.35;100.00;97780.09;5044168;28;20188;-81
2023/03/26 10:30:53;;;;;;;5.37;2.50;;;;;;;8.50;100.00;97783.38;5051774;28;20294;-80
2023/03/26 10:33:30;;;;;;;7.47;2.23;;;;;;;8.44;100.00;97781.19;4952753;28;20216;-81
2023/03/26 10:36:20;;;;;;;9.53;2.60;;;;;;;8.40;100.00;97783.22;5024632;28;20198;-81
2023/03/26 10:39:03;;;;;;;5.03;2.20;;;;;;;8.18;100.00;97777.88;5035577;28;20201;-81
2023/03/26 10:41:45;;;;;;;5.50;2.07;;;;;;;8.27;100.00;97771.91;5030275;28;20202;-80
2023/03/26 10:44:28;;;;;;;6.93;2.17;;;;;;;8.20;100.00;97762.75;5010517;28;20190;-81
2023/03/26 10:47:35;;;;;;;4.57;1.80;;;;;;;8.29;100.00;97768.19;5006955;28;20681;-81
2023/03/26 10:50:20;;;;;;;6.77;2.20;;;;;;;8.32;100.00;97765.31;4965468;28;20820;-81
2023/03/26 10:52:57;;;;;;;9.10;2.40;;;;;;;8.23;100.00;97766.03;5010793;28;20285;-81
2023/03/26 10:55:32;;;;;;;6.77;2.60;;;;;;;8.23;100.00;97768.66;5008300;28;20245;-80
2023/03/26 10:58:06;;;;;;;7.83;2.83;;;;;;;8.32;100.00;97770.59;5008865;28;20674;-81
2023/03/26 11:00:39;;;;;;;6.53;2.53;;;;;;;8.16;100.00;97761.34;5010591;28;20206;-80
2023/03/26 11:03:40;;;;;;;6.60;2.33;;;;;;;8.25;100.00;97750.91;5023537;28;20197;-80
2023/03/26 11:06:17;;;;;;;7.77;2.70;;;;;;;8.22;100.00;97750.31;5025227;28;20209;-81
2023/03/26 11:08:51;;;;;;;7.13;2.53;;;;;;;8.33;100.00;97750.34;5026316;28;20201;-80
2023/03/26 11:11:28;;;;;;;8.70;2.70;;;;;;;8.40;100.00;97753.38;4993134;28;20222;-81
2023/03/26 11:14:05;;;;;;;8.53;2.63;;;;;;;8.35;100.00;97745.81;4987996;28;20249;-80
2023/03/26 11:16:49;;;;;;;9.03;3.20;;;;;;;8.43;100.00;97739.94;4988799;28;20238;-81
2023/03/26 11:19:25;;;;;;;4.93;2.30;;;;;;;8.24;100.00;97746.59;4991170;28;20253;-80
2023/03/26 11:22:02;;;;;;;6.70;3.07;;;;;;;8.24;100.00;97737.84;4988652;28;20212;-80
2023/03/26 11:25:00;;;;;;;7.70;2.60;;;;;;;8.36;100.00;97742.19;4985635;28;20257;-81
2023/03/26 11:27:47;;;;;;;4.83;2.47;;;;;;;8.32;100.00;97738.09;4988251;28;20219;-80
2023/03/26 11:30:28;;;;;;;10.13;4.70;;;;;;;8.29;100.00;97730.41;5019670;28;20224;-80
2023/03/26 11:33:03;;;;;;;5.87;2.73;;;;;;;8.24;100.00;97736.06;5032642;28;20264;-80
2023/03/26 11:35:36;;;;;;;11.20;5.93;;;;;;;8.40;100.00;97734.91;5031743;28;20201;-81
2023/03/26 11:38:16;;;;;;;10.57;5.47;;;;;;;8.33;100.00;97739.78;5034322;28;20205;-80
2023/03/26 11:40:49;;;;;;;8.50;3.97;;;;;;;8.50;100.00;97733.22;5031377;28;20200;-81
2023/03/26 11:43:24;;;;;;;8.13;3.37;;;;;;;8.33;100.00;97727.44;5029622;28;20707;-80
2023/03/26 11:45:53;;;;;;;8.87;3.77;;;;;;;8.38;100.00;97732.38;5032633;28;20648;-80
2023/03/26 11:48:29;;;;;;;7.37;2.70;;;;;;;8.37;100.00;97733.31;5031948;28;20683;-80
2023/03/26 11:51:03;;;;;;;6.83;3.30;;;;;;;8.34;100.00;97720.34;5029385;28;20264;-80
2023/03/26 11:53:37;;;;;;;6.47;2.90;;;;;;;8.23;100.00;97715.06;5033954;28;20193;-81
2023/03/26 11:56:14;;;;;;;7.73;3.03;;;;;;;8.33;100.00;97708.13;5027212;28;20207;-81
2023/03/26 11:58:50;;;;;;;8.63;3.37;;;;;;;8.28;100.00;97708.47;5034244;28;20652;-80
2023/03/26 12:01:29;;;;;;;6.33;2.90;;;;;;;8.37;100.00;97708.75;5028363;28;20196;-80
2023/03/26 12:04:06;;;;;;;8.97;3.27;;;;;;;8.56;100.00;97704.53;5034388;28;20284;-81
2023/03/26 12:06:38;;;;;;;8.93;3.30;;;;;;;8.81;100.00;97705.25;5031452;28;20236;-80
2023/03/26 12:09:16;;;;;;;8.53;4.30;;;;;;;8.74;100.00;97701.41;5028226;28;20244;-81